Terminal Aerodrome Forecast
Issued by NWS

Home | Current Version | Previous Version | Text Only | Print | Product List | Glossary Off
Versions: 1 2 3 4 5 6 7 8 9 10 11 12 13 14 15 16 17 18 19

000
FTUS43 KGRB 300200 AAA
TAFATW
TAF AMD
KATW 300207Z 3002/3024 27006KT P6SM BKN030
      TEMPO 3002/3006 SCT030
     FM300900 23004KT P6SM SCT035 OVC150
     FM301400 25007KT P6SM SCT035 OVC100
     FM302000 28008KT P6SM BKN035 OVC050 PROB30 3020/3024 -SHRA=

USA.gov is the U.S. government's official web portal to all federal, state and local government web resources and services.